This is the latest recevied weather packets stored in our database for station/object OM5AST-13. If no packets are shown the sender has not sent any weather packets the latest 10 day(s).
| Time | Temp. | Humidity | Pressure | Rain* | Wind** | Luminosity | Snow |
|---|---|---|---|---|---|---|---|
| 1777715035 | 21.11° C | 37% | - | 0 mm | - | 0 W/m² | - |
| 1777713835 | 20.56° C | 38% | - | 0 mm | - | 0 W/m² | - |
| 1777712635 | 20.56° C | 37% | - | 0 mm | - | 0 W/m² | - |
| 1777711435 | 20.56° C | 39% | - | 0 mm | - | 0 W/m² | - |
| 1777710236 | 20° C | 40% | - | 0 mm | - | 0 W/m² | - |
| 1777709035 | 18.89° C | 42% | - | 0 mm | - | 0 W/m² | - |
| 1777707836 | 18.33° C | 43% | - | 0 mm | - | 0 W/m² | - |
| 1777706635 | 17.78° C | 46% | - | 0 mm | - | 0 W/m² | - |
| 1777705435 | 16.67° C | 47% | - | 0 mm | - | 0 W/m² | - |
| 1777704235 | 16.11° C | 50% | - | 0 mm | - | 0 W/m² | - |
| 1777703035 | 15.56° C | 53% | - | 0 mm | - | 0 W/m² | - |
| 1777701835 | 14.44° C | 54% | - | 0 mm | - | 0 W/m² | - |
| 1777700636 | 13.89° C | 56% | - | 0 mm | - | 0 W/m² | - |
| 1777699436 | 13.33° C | 59% | - | 0 mm | - | 0 W/m² | - |
| 1777698235 | 12.78° C | 59% | - | 0 mm | - | 0 W/m² | - |
| 1777697035 | 12.22° C | 60% | - | 0 mm | - | 0 W/m² | - |
| 1777695836 | 11.67° C | 59% | - | 0 mm | - | 0 W/m² | - |
| 1777694635 | 11.67° C | 59% | - | 0 mm | - | 0 W/m² | - |
| 1777693435 | 11.67° C | 59% | - | 0 mm | - | 0 W/m² | - |
| 1777692235 | 12.22° C | 59% | - | 0 mm | - | 0 W/m² | - |
| 1777691035 | 12.22° C | 59% | - | 0 mm | - | 0 W/m² | - |
| 1777689835 | 12.78° C | 58% | - | 0 mm | - | 0 W/m² | - |
| 1777688635 | 13.33° C | 56% | - | 0 mm | - | 0 W/m² | - |
| 1777687435 | 14.44° C | 49% | - | 0 mm | - | 0 W/m² | - |
| 1777686235 | 14.44° C | 51% | - | 0 mm | - | 0 W/m² | - |
* Rain latest hour (hover to see other rain measurements)
** Current wind speed in m/s (hover to see current wind gust speed)